Terminal Aerodrome Forecast
Issued by NWS

Home | Current Version | Previous Version | Graphics & Text | Print | Product List | Glossary On
Versions: 1 2 3 4 5 6 7 8 9 10 11 12 13 14 15 16 17 18
000
FTUS43 KMPX 250500
TAFAXN
TAF
KAXN 250539Z 2506/2606 21008KT P6SM OVC006
     FM251200 VRB03KT 6SM BR OVC009
     FM251800 33004KT 4SM -SN BR OVC012=

USA.gov is the U.S. government's official web portal to all federal, state and local government web resources and services.